aviador You're here:

TBPB Decoded Metar

BRIDGETOWN in BARBADOS
Report Time2017-12-16 16:00:00
UTC Time2017-12-16 16:46:21
Flight Rules vfr VFR
Wind080° at 20 kt
W.Decomp.*RWY 09: 19.9 kt HW 1.7 kt RCW
W.Rank080° ranks 1
Current wind is above 080° avg. (13.8)
Visibility8000 m
Phenomena:Shower Rain
Vicinity showers
Clouds:Scattered 014 Hf
Expected CloudBase > 1,600 ft AGL from Temp-Dew spread
CeilingNone
Temp28°C (ISA +13)
Dew Point24°C (79% RH)
Heat Index31.9°C
AAT26.6°C
QNH1015 hPa
Density Alt2,031 ft
Elevation171 ft
Report Wrong Elevation
Raw Report
TBPB 161600Z 08020KT 8000 SHRA VCSH SCT014 28/24 Q1015 NOSIG=

Extra information for TBPB:More info

Metar Taf Metar & Taf Last 4 Metars F.Rules Stats Wind Profile Meteogram Temp Stats Airport Information Weather charts Add Link Nearby VenuesMetar ALERT Operation Metar Decoded Social comments